createdAt,value
2023-02-02T00:01:29.595Z,12.67
2023-02-02T00:03:57.703Z,15.73
2023-02-02T00:06:27.384Z,17.13
2023-02-02T00:08:57.933Z,19.30
2023-02-02T00:11:26.330Z,12.33
2023-02-02T00:13:54.238Z,10.77
2023-02-02T00:16:38.100Z,16.03
2023-02-02T00:19:07.672Z,13.00
2023-02-02T00:21:35.917Z,10.90
2023-02-02T00:24:05.410Z,15.37
2023-02-02T00:26:33.250Z,15.82
2023-02-02T00:29:01.555Z,19.83
2023-02-02T00:31:29.411Z,8.70
2023-02-02T00:33:57.449Z,17.20
2023-02-02T00:36:42.272Z,22.50
2023-02-02T00:39:12.355Z,13.10
2023-02-02T00:41:40.070Z,15.53
2023-02-02T00:44:25.419Z,14.87
2023-02-02T00:46:53.263Z,14.53
2023-02-02T00:49:21.315Z,15.90
2023-02-02T00:51:49.028Z,15.60
2023-02-02T00:54:18.233Z,14.93
2023-02-02T00:56:45.967Z,11.27
2023-02-02T00:59:13.861Z,14.30
2023-02-02T01:01:44.136Z,16.00
2023-02-02T01:04:11.951Z,19.80
2023-02-02T01:06:39.688Z,18.83
2023-02-02T01:09:07.382Z,11.83
2023-02-02T01:11:36.431Z,18.37
2023-02-02T01:14:04.180Z,13.07
2023-02-02T01:16:32.139Z,12.37
2023-02-02T01:18:59.919Z,14.03
2023-02-02T01:21:27.773Z,21.63
2023-02-02T01:23:55.469Z,12.20
2023-02-02T01:26:23.196Z,11.43
2023-02-02T01:28:52.223Z,16.13
2023-02-02T01:31:21.509Z,16.17
2023-02-02T01:33:50.415Z,14.00
2023-02-02T01:36:20.922Z,17.57
2023-02-02T01:38:49.882Z,19.00
2023-02-02T01:41:19.725Z,17.93
2023-02-02T01:43:54.921Z,14.23
2023-02-02T01:46:25.565Z,11.87
2023-02-02T01:48:57.502Z,17.30
2023-02-02T01:51:30.617Z,11.90
2023-02-02T01:53:59.664Z,12.37
2023-02-02T01:56:30.863Z,26.70
2023-02-02T01:59:00.914Z,17.43
2023-02-02T02:01:29.103Z,18.87
2023-02-02T02:04:00.477Z,10.93
2023-02-02T02:06:29.172Z,16.37
2023-02-02T02:09:00.199Z,15.90
2023-02-02T02:11:28.418Z,16.83
2023-02-02T02:14:20.554Z,15.00
2023-02-02T02:16:59.030Z,17.67
2023-02-02T02:20:28.200Z,13.50
2023-02-02T02:23:40.797Z,11.10
2023-02-02T02:26:34.852Z,14.00
2023-02-02T02:29:26.602Z,10.13
2023-02-02T02:32:28.377Z,21.23
2023-02-02T02:35:01.911Z,9.83
2023-02-02T02:37:37.859Z,14.60
2023-02-02T02:40:12.538Z,11.23
2023-02-02T02:42:43.337Z,12.53
2023-02-02T02:45:13.914Z,17.23
2023-02-02T02:47:44.172Z,11.40
2023-02-02T02:50:12.671Z,10.03
2023-02-02T02:52:41.438Z,14.83
2023-02-02T02:55:11.715Z,11.30
2023-02-02T02:57:48.120Z,12.30
2023-02-02T03:00:29.322Z,10.93
2023-02-02T03:03:08.575Z,12.00
2023-02-02T03:05:47.416Z,12.17
2023-02-02T03:08:21.247Z,14.57
2023-02-02T03:10:49.252Z,20.10
2023-02-02T03:13:17.838Z,16.33
2023-02-02T03:15:46.340Z,18.57
2023-02-02T03:18:18.157Z,15.07
2023-02-02T03:20:47.025Z,14.50
2023-02-02T03:23:14.833Z,8.43
2023-02-02T03:25:43.015Z,14.27
2023-02-02T03:28:11.021Z,20.00
2023-02-02T03:30:41.149Z,20.00
2023-02-02T03:33:09.195Z,15.37
2023-02-02T03:35:38.291Z,13.13
2023-02-02T03:38:06.041Z,14.43
2023-02-02T03:40:33.857Z,23.63
2023-02-02T03:43:01.712Z,12.10
2023-02-02T03:45:30.215Z,15.90
2023-02-02T03:47:57.921Z,20.50
2023-02-02T03:50:25.666Z,12.80
2023-02-02T03:52:55.179Z,16.90
2023-02-02T03:55:23.157Z,12.90
2023-02-02T03:57:51.123Z,9.27
2023-02-02T04:00:19.578Z,18.80
2023-02-02T04:02:47.311Z,17.57
2023-02-02T04:05:15.112Z,12.73
2023-02-02T04:07:42.904Z,12.77
2023-02-02T04:10:13.005Z,13.23
2023-02-02T04:12:40.762Z,14.30
2023-02-02T04:15:09.635Z,16.00
2023-02-02T04:17:37.595Z,15.47
2023-02-02T04:20:06.685Z,15.57
2023-02-02T04:22:34.691Z,12.83
2023-02-02T04:25:02.389Z,14.98
2023-02-02T04:27:33.831Z,15.33
2023-02-02T04:30:01.682Z,9.10
2023-02-02T04:32:29.446Z,16.13
2023-02-02T04:34:57.132Z,14.67
2023-02-02T04:37:24.864Z,17.27
2023-02-02T04:39:53.780Z,15.80
2023-02-02T04:42:21.539Z,10.03
2023-02-02T04:44:50.758Z,10.97
2023-02-02T04:47:18.631Z,19.00
2023-02-02T04:49:46.324Z,20.00
2023-02-02T04:52:14.034Z,17.03
2023-02-02T04:54:41.722Z,17.07
2023-02-02T04:57:09.441Z,15.10
2023-02-02T04:59:37.266Z,16.27
2023-02-02T05:02:06.343Z,17.20
2023-02-02T05:04:34.192Z,16.47
2023-02-02T05:07:01.924Z,16.00
2023-02-02T05:09:29.606Z,22.97
2023-02-02T05:11:57.309Z,11.77
2023-02-02T05:14:25.042Z,19.30
2023-02-02T05:16:53.679Z,16.30
2023-02-02T05:19:22.764Z,12.57
2023-02-02T05:21:51.354Z,20.00
2023-02-02T05:24:19.298Z,16.33
2023-02-02T05:26:47.452Z,19.53
2023-02-02T05:29:15.195Z,21.40
2023-02-02T05:31:42.946Z,11.93
2023-02-02T05:34:11.526Z,15.63
2023-02-02T05:36:40.649Z,12.90
2023-02-02T05:39:08.373Z,13.87
2023-02-02T05:41:36.095Z,13.23
2023-02-02T05:44:03.919Z,16.70
2023-02-02T05:46:31.992Z,23.50
2023-02-02T05:48:59.716Z,16.23
2023-02-02T05:51:30.487Z,11.60
2023-02-02T05:54:01.011Z,17.83
2023-02-02T05:56:28.911Z,13.13
2023-02-02T05:58:56.671Z,18.43
2023-02-02T06:01:24.426Z,18.30
2023-02-02T06:03:52.241Z,18.77
2023-02-02T06:06:20.046Z,16.10
2023-02-02T06:08:47.761Z,16.47
2023-02-02T06:11:18.894Z,27.33
2023-02-02T06:13:46.705Z,20.33
2023-02-02T06:16:14.825Z,12.97
2023-02-02T06:18:42.580Z,16.53
2023-02-02T06:21:11.071Z,21.80
2023-02-02T06:23:38.877Z,16.87
2023-02-02T06:26:08.180Z,15.17
2023-02-02T06:28:37.257Z,13.80
2023-02-02T06:31:06.341Z,14.63
2023-02-02T06:33:34.392Z,18.03
2023-02-02T06:36:02.679Z,15.33
2023-02-02T06:38:30.412Z,13.60
2023-02-02T06:41:00.323Z,16.33
2023-02-02T06:43:28.151Z,16.40
2023-02-02T06:45:58.683Z,21.23
2023-02-02T06:48:26.640Z,19.43
2023-02-02T06:50:54.947Z,15.40
2023-02-02T06:53:23.319Z,18.77
2023-02-02T06:55:54.571Z,13.17
2023-02-02T06:58:22.439Z,12.43
2023-02-02T07:00:50.315Z,14.67
2023-02-02T07:03:21.314Z,18.03
2023-02-02T07:05:49.820Z,20.40
2023-02-02T07:08:17.718Z,14.87
2023-02-02T07:11:12.671Z,13.70
2023-02-02T07:13:33.162Z,17.90
2023-02-02T07:16:00.959Z,13.67
2023-02-02T07:18:30.399Z,13.00
2023-02-02T07:21:00.232Z,25.73
2023-02-02T07:23:27.985Z,16.20
2023-02-02T07:26:03.337Z,15.83
2023-02-02T07:28:31.823Z,15.77
2023-02-02T07:31:13.552Z,19.30
2023-02-02T07:33:45.058Z,20.77
2023-02-02T07:36:16.222Z,22.13
2023-02-02T07:38:44.192Z,19.70
2023-02-02T07:41:12.030Z,21.77
2023-02-02T07:43:39.756Z,29.33
2023-02-02T07:46:10.067Z,19.27
2023-02-02T07:48:38.196Z,18.17
2023-02-02T07:51:09.101Z,15.20
2023-02-02T07:53:37.428Z,20.20
2023-02-02T07:56:09.349Z,13.67
2023-02-02T07:58:37.253Z,25.67
2023-02-02T08:01:06.284Z,25.67
2023-02-02T08:03:34.115Z,16.00
2023-02-02T08:06:02.191Z,18.30
2023-02-02T08:08:31.326Z,21.23
2023-02-02T08:10:58.994Z,18.90
2023-02-02T08:13:30.501Z,22.20
2023-02-02T08:15:58.847Z,22.20
2023-02-02T08:18:26.618Z,20.70
2023-02-02T08:20:54.361Z,15.43
2023-02-02T08:23:23.668Z,16.60
2023-02-02T08:25:53.200Z,17.70
2023-02-02T08:28:21.125Z,15.27
2023-02-02T08:30:48.844Z,17.47
2023-02-02T08:33:16.669Z,20.80
2023-02-02T08:35:44.925Z,17.37
2023-02-02T08:38:12.640Z,16.93
2023-02-02T08:40:40.317Z,12.87
2023-02-02T08:43:10.674Z,20.23
2023-02-02T08:46:12.631Z,25.77
2023-02-02T08:48:26.813Z,13.53
2023-02-02T08:50:55.688Z,13.47
2023-02-02T08:53:24.402Z,19.77
2023-02-02T08:55:59.774Z,12.37
2023-02-02T08:58:29.244Z,11.77
2023-02-02T09:01:04.409Z,14.90
2023-02-02T09:03:32.204Z,13.47
2023-02-02T09:06:04.294Z,15.77
2023-02-02T09:08:33.425Z,12.90
2023-02-02T09:11:08.495Z,25.30
2023-02-02T09:13:39.153Z,19.20
2023-02-02T09:16:09.576Z,23.93
2023-02-02T09:18:37.515Z,15.47
2023-02-02T09:21:07.293Z,20.20
2023-02-02T09:23:37.257Z,25.60
2023-02-02T09:26:11.444Z,18.40
2023-02-02T09:28:42.108Z,19.83
2023-02-02T09:31:10.592Z,12.87
2023-02-02T09:33:38.621Z,18.23
2023-02-02T09:36:08.401Z,20.50
2023-02-02T09:38:36.945Z,13.50
2023-02-02T09:41:20.411Z,14.23
2023-02-02T09:43:53.346Z,17.90
2023-02-02T09:46:29.895Z,16.27
2023-02-02T09:49:02.239Z,14.77
2023-02-02T09:51:35.964Z,21.77
2023-02-02T09:54:11.007Z,15.50
2023-02-02T09:56:41.128Z,21.43
2023-02-02T09:59:21.459Z,17.07
2023-02-02T10:01:55.363Z,11.30
2023-02-02T10:04:27.786Z,14.80
2023-02-02T10:06:59.190Z,15.20
2023-02-02T10:09:39.416Z,17.27
2023-02-02T10:12:19.767Z,14.90
2023-02-02T10:14:54.313Z,16.47
2023-02-02T10:17:39.684Z,13.60
2023-02-02T10:20:18.436Z,11.43
2023-02-02T10:22:47.654Z,16.03
2023-02-02T10:25:16.837Z,17.60
2023-02-02T10:27:55.306Z,23.90
2023-02-02T10:30:29.986Z,15.70
2023-02-02T10:33:06.025Z,14.47
2023-02-02T10:35:40.340Z,9.40
2023-02-02T10:38:20.262Z,11.50
2023-02-02T10:40:56.855Z,16.40
2023-02-02T10:43:54.407Z,14.67
2023-02-02T10:46:26.735Z,15.70
2023-02-02T10:49:11.148Z,11.63
2023-02-02T10:51:40.525Z,13.77
2023-02-02T10:54:21.164Z,17.67
2023-02-02T10:56:53.962Z,13.87
2023-02-02T10:59:26.085Z,16.20
2023-02-02T11:01:55.322Z,17.63
2023-02-02T11:04:41.282Z,15.40
2023-02-02T11:07:08.996Z,12.83
2023-02-02T11:09:40.665Z,13.37
2023-02-02T11:12:18.864Z,14.77
2023-02-02T11:14:50.512Z,23.30
2023-02-02T11:17:22.269Z,11.93
2023-02-02T11:19:50.814Z,14.80
2023-02-02T11:22:34.000Z,24.87
2023-02-02T11:25:03.578Z,12.20
2023-02-02T11:27:35.524Z,16.47
2023-02-02T11:30:13.520Z,10.27
2023-02-02T11:32:47.797Z,10.00
2023-02-02T11:35:21.886Z,17.30
2023-02-02T11:38:08.430Z,10.70
2023-02-02T11:40:38.411Z,12.97
2023-02-02T11:43:16.008Z,14.27
2023-02-02T11:45:49.404Z,10.37
2023-02-02T11:48:21.025Z,9.60
2023-02-02T11:50:50.979Z,19.43
2023-02-02T11:53:24.603Z,11.07
2023-02-02T11:55:53.941Z,7.37
2023-02-02T11:58:27.601Z,10.60
2023-02-02T12:01:00.944Z,18.13
2023-02-02T12:03:33.302Z,13.43
2023-02-02T12:06:02.911Z,13.57
2023-02-02T12:08:31.449Z,14.07
2023-02-02T12:11:01.250Z,10.07
2023-02-02T12:13:52.910Z,13.33
2023-02-02T12:20:41.504Z,14.30
2023-02-02T12:23:22.463Z,10.67
2023-02-02T12:26:09.885Z,12.10
2023-02-02T12:28:49.977Z,18.93
2023-02-02T12:31:27.675Z,14.23
2023-02-02T12:34:04.759Z,12.40
2023-02-02T12:36:48.155Z,23.47
2023-02-02T12:39:27.389Z,15.13
2023-02-02T12:42:24.116Z,9.80
2023-02-02T12:45:02.109Z,16.23
2023-02-02T12:47:35.670Z,14.90
2023-02-02T12:50:20.998Z,12.23
2023-02-02T12:53:08.921Z,15.60
2023-02-02T12:55:47.800Z,9.03
2023-02-02T12:58:26.133Z,14.23
2023-02-02T13:01:07.790Z,9.37
2023-02-02T13:03:47.365Z,10.07
2023-02-02T13:06:32.903Z,10.73
2023-02-02T13:09:07.551Z,9.40
2023-02-02T13:11:41.958Z,13.67
2023-02-02T13:14:14.010Z,13.60
2023-02-02T13:16:48.385Z,17.77
2023-02-02T13:19:27.754Z,11.93
2023-02-02T13:21:59.262Z,8.13
2023-02-02T13:24:31.608Z,9.70
2023-02-02T13:27:02.872Z,9.60
2023-02-02T13:29:39.029Z,15.20
2023-02-02T13:32:27.508Z,13.63
2023-02-02T13:34:59.863Z,10.53
2023-02-02T13:37:37.123Z,10.67
2023-02-02T13:40:25.319Z,14.43
2023-02-02T13:42:58.827Z,14.80
2023-02-02T13:45:40.012Z,10.50
2023-02-02T13:48:17.235Z,15.97
2023-02-02T13:50:55.540Z,15.40
2023-02-02T13:53:41.252Z,10.83
2023-02-02T13:56:27.099Z,12.70
2023-02-02T13:59:07.155Z,10.03
2023-02-02T14:01:35.114Z,12.93
2023-02-02T14:04:04.605Z,19.80
2023-02-02T14:06:57.377Z,16.80
2023-02-02T14:09:28.676Z,15.90
2023-02-02T14:12:00.913Z,12.03
2023-02-02T14:14:35.650Z,11.77
2023-02-02T14:17:06.010Z,14.57
2023-02-02T14:19:52.322Z,15.27
2023-02-02T14:22:47.776Z,10.63
2023-02-02T14:25:53.205Z,11.33
2023-02-02T14:28:45.053Z,14.00
2023-02-02T14:31:44.401Z,12.27
2023-02-02T14:34:30.461Z,13.73
2023-02-02T14:37:20.509Z,8.57
2023-02-02T14:39:58.023Z,10.63
2023-02-02T14:42:56.203Z,10.30
2023-02-02T14:45:29.385Z,9.83
2023-02-02T14:48:00.617Z,15.00
2023-02-02T14:50:36.660Z,14.43
2023-02-02T14:53:08.276Z,12.40
2023-02-02T14:55:39.441Z,12.67
2023-02-02T14:58:08.327Z,10.30
2023-02-02T15:00:37.411Z,14.00
2023-02-02T15:03:34.322Z,10.40
2023-02-02T15:06:09.419Z,11.70
2023-02-02T15:08:37.284Z,16.47
2023-02-02T15:11:23.938Z,7.77
2023-02-02T15:13:57.803Z,9.57
2023-02-02T15:16:31.630Z,11.23
2023-02-02T15:19:07.980Z,10.40
2023-02-02T15:21:42.126Z,13.63
2023-02-02T15:24:20.452Z,14.00
2023-02-02T15:26:49.258Z,18.70
2023-02-02T15:29:22.963Z,10.93
2023-02-02T15:31:55.202Z,10.63
2023-02-02T15:34:28.270Z,10.37
2023-02-02T15:36:59.508Z,14.50
2023-02-02T15:39:31.184Z,12.50
2023-02-02T15:42:19.701Z,14.93
2023-02-02T15:44:47.477Z,14.07
2023-02-02T15:47:19.693Z,12.30
2023-02-02T15:49:47.633Z,15.43
2023-02-02T15:52:18.231Z,10.90
2023-02-02T15:54:53.098Z,10.80
2023-02-02T15:57:32.586Z,17.97
2023-02-02T16:00:03.482Z,16.07
2023-02-02T16:02:40.038Z,11.60
2023-02-02T16:05:26.739Z,15.60
2023-02-02T16:08:05.038Z,12.90
2023-02-02T16:10:34.046Z,12.17
2023-02-02T16:13:01.934Z,13.17
2023-02-02T16:15:31.863Z,11.33
2023-02-02T16:18:02.150Z,11.70
2023-02-02T16:20:32.980Z,8.60
2023-02-02T16:23:04.735Z,24.53
2023-02-02T16:25:37.650Z,13.13
2023-02-02T16:28:05.890Z,13.73
2023-02-02T16:30:37.373Z,16.37
2023-02-02T16:33:34.122Z,11.60
2023-02-02T16:36:04.344Z,9.40
2023-02-02T16:38:34.520Z,12.23
2023-02-02T16:41:04.239Z,16.13
2023-02-02T16:43:32.023Z,12.27
2023-02-02T16:46:02.201Z,16.83
2023-02-02T16:48:34.835Z,15.27
2023-02-02T16:51:21.769Z,14.47
2023-02-02T16:53:57.548Z,10.33
2023-02-02T16:56:31.792Z,13.10
2023-02-02T16:59:03.161Z,9.00
2023-02-02T17:01:37.055Z,8.77
2023-02-02T17:04:08.393Z,16.00
2023-02-02T17:06:51.309Z,13.93
2023-02-02T17:09:42.229Z,12.10
2023-02-02T17:12:34.092Z,12.93
2023-02-02T17:15:06.170Z,17.93
2023-02-02T17:17:34.226Z,17.20
2023-02-02T17:20:05.624Z,10.93
2023-02-02T17:22:38.676Z,13.20
2023-02-02T17:25:07.477Z,10.20
2023-02-02T17:27:36.242Z,8.63
2023-02-02T17:30:06.072Z,11.90
2023-02-02T17:32:33.854Z,8.57
2023-02-02T17:35:03.930Z,10.70
2023-02-02T17:37:31.675Z,11.87
2023-02-02T17:39:59.383Z,12.03
2023-02-02T17:42:30.538Z,11.77
2023-02-02T17:44:58.241Z,16.30
2023-02-02T17:47:25.971Z,16.87
2023-02-02T17:49:53.674Z,11.63
2023-02-02T17:52:22.723Z,10.53
2023-02-02T17:54:50.430Z,13.17
2023-02-02T17:57:18.159Z,12.50
2023-02-02T17:59:45.871Z,13.50
2023-02-02T18:02:16.663Z,11.23
2023-02-02T18:04:45.672Z,26.37
2023-02-02T18:07:13.597Z,8.43
2023-02-02T18:09:42.930Z,14.27
2023-02-02T18:12:10.763Z,15.23
2023-02-02T18:14:38.601Z,9.13
2023-02-02T18:17:08.167Z,9.20
2023-02-02T18:19:35.887Z,11.27
2023-02-02T18:22:03.611Z,11.47
2023-02-02T18:24:31.363Z,11.50
2023-02-02T18:27:00.464Z,9.70
2023-02-02T18:29:28.363Z,9.67
2023-02-02T18:31:56.143Z,10.60
2023-02-02T18:34:23.899Z,9.20
2023-02-02T18:36:51.635Z,11.33
2023-02-02T18:39:19.335Z,13.43
2023-02-02T18:41:47.048Z,12.00
2023-02-02T18:44:16.288Z,11.93
2023-02-02T18:46:44.129Z,8.10
2023-02-02T18:49:12.337Z,11.30
2023-02-02T18:51:40.543Z,7.77
2023-02-02T18:54:08.257Z,13.17
2023-02-02T18:56:36.012Z,8.03
2023-02-02T18:59:05.815Z,8.10
2023-02-02T19:01:35.407Z,6.77
2023-02-02T19:04:03.578Z,7.20
2023-02-02T19:06:49.326Z,8.00
2023-02-02T19:09:17.897Z,6.13
2023-02-02T19:11:47.556Z,7.07
2023-02-02T19:14:17.048Z,7.23
2023-02-02T19:16:47.528Z,6.47
2023-02-02T19:19:23.418Z,5.70
2023-02-02T19:21:54.147Z,6.57
2023-02-02T19:24:21.863Z,5.50
2023-02-02T19:26:51.166Z,8.40
2023-02-02T19:29:20.993Z,5.77
2023-02-02T19:31:54.300Z,5.70
2023-02-02T19:34:23.382Z,5.80
2023-02-02T19:36:52.228Z,5.63
2023-02-02T19:39:22.485Z,5.93
2023-02-02T19:41:51.136Z,6.60
2023-02-02T19:44:20.667Z,5.87
2023-02-02T19:46:50.670Z,7.70
2023-02-02T19:49:26.002Z,9.20
2023-02-02T19:51:55.634Z,7.30
2023-02-02T19:54:29.589Z,5.50
2023-02-02T19:56:59.594Z,6.30
2023-02-02T19:59:34.136Z,7.27
2023-02-02T20:02:21.936Z,5.33
2023-02-02T20:04:59.656Z,6.30
2023-02-02T20:07:27.534Z,5.30
2023-02-02T20:09:59.313Z,5.00
2023-02-02T20:12:32.277Z,5.37
2023-02-02T20:15:00.031Z,6.87
2023-02-02T20:17:32.762Z,5.50
2023-02-02T20:20:01.882Z,4.90
2023-02-02T20:22:30.571Z,5.10
2023-02-02T20:24:58.665Z,5.80
2023-02-02T20:27:28.595Z,5.07
2023-02-02T20:30:01.840Z,5.83
2023-02-02T20:32:37.714Z,6.27
2023-02-02T20:35:25.339Z,4.90
2023-02-02T20:37:53.212Z,4.73
2023-02-02T20:40:28.402Z,5.60
2023-02-02T20:42:58.298Z,4.83
2023-02-02T20:45:27.035Z,6.27
2023-02-02T20:47:54.874Z,6.47
2023-02-02T20:50:25.275Z,4.77
2023-02-02T20:52:54.007Z,5.37
2023-02-02T20:55:21.910Z,5.00
2023-02-02T20:57:49.743Z,6.27
2023-02-02T21:00:21.294Z,6.93
2023-02-02T21:02:49.033Z,5.90
2023-02-02T21:05:16.800Z,9.37
2023-02-02T21:07:45.885Z,10.00
2023-02-02T21:10:13.630Z,9.23
2023-02-02T21:12:41.326Z,9.83
2023-02-02T21:15:10.259Z,7.83
2023-02-02T21:17:40.356Z,9.40
2023-02-02T21:20:10.465Z,7.53
2023-02-02T21:22:38.209Z,7.83
2023-02-02T21:25:08.157Z,6.87
2023-02-02T21:27:41.077Z,7.80
2023-02-02T21:30:10.760Z,7.57
2023-02-02T21:32:38.711Z,6.77
2023-02-02T21:35:07.460Z,7.50
2023-02-02T21:37:36.825Z,9.20
2023-02-02T21:40:14.447Z,6.43
2023-02-02T21:42:45.672Z,5.20
2023-02-02T21:45:33.213Z,5.07
2023-02-02T21:48:02.943Z,5.70
2023-02-02T21:50:32.981Z,5.10
2023-02-02T21:53:21.204Z,5.30
2023-02-02T21:55:53.078Z,5.70
2023-02-02T21:58:23.286Z,5.00
2023-02-02T22:00:51.409Z,5.03
2023-02-02T22:03:32.809Z,4.90
2023-02-02T22:06:14.052Z,4.93
2023-02-02T22:08:42.174Z,4.93
2023-02-02T22:11:22.773Z,5.00
2023-02-02T22:13:50.776Z,5.50
2023-02-02T22:16:21.168Z,5.03
2023-02-02T22:18:49.040Z,6.43
2023-02-02T22:21:20.795Z,5.00
2023-02-02T22:23:48.807Z,5.20
2023-02-02T22:26:34.081Z,5.40
2023-02-02T22:29:03.429Z,5.10
2023-02-02T22:31:31.258Z,5.97
2023-02-02T22:33:59.025Z,5.40
2023-02-02T22:36:27.158Z,5.80
2023-02-02T22:38:54.908Z,5.20
2023-02-02T22:41:22.717Z,5.23
2023-02-02T22:43:51.805Z,5.33
2023-02-02T22:46:19.566Z,5.50
2023-02-02T22:48:47.491Z,5.30
2023-02-02T22:51:15.219Z,5.40
2023-02-02T22:53:43.106Z,5.60
2023-02-02T22:56:11.008Z,5.40
2023-02-02T22:58:38.735Z,5.43
2023-02-02T23:01:07.929Z,6.00
2023-02-02T23:03:36.503Z,5.40
2023-02-02T23:06:04.340Z,5.50
2023-02-02T23:08:32.212Z,6.00
2023-02-02T23:10:59.905Z,5.90
2023-02-02T23:13:30.548Z,6.17
2023-02-02T23:15:58.320Z,5.93
2023-02-02T23:18:30.146Z,6.73
2023-02-02T23:20:57.855Z,6.30
2023-02-02T23:23:25.769Z,6.30
2023-02-02T23:25:53.485Z,6.83
2023-02-02T23:28:21.198Z,6.33
2023-02-02T23:30:49.384Z,6.20
2023-02-02T23:33:17.200Z,6.00
2023-02-02T23:35:46.234Z,6.47
2023-02-02T23:38:14.082Z,8.10
2023-02-02T23:40:41.838Z,6.00
2023-02-02T23:43:09.652Z,6.50
2023-02-02T23:45:38.762Z,6.00
2023-02-02T23:48:07.378Z,6.03
2023-02-02T23:50:37.866Z,6.10
2023-02-02T23:53:08.511Z,6.00
2023-02-02T23:55:36.454Z,6.60
2023-02-02T23:58:04.361Z,6.30
